1892 Hurricane NOT_NAMED (1892247N12327)


IBTrACS version v04r00. Visit IBTrACS website for data access.
Please direct all questions to the IBTrACS Q and A forum

Storm track - Intensity - Wind Radii - Intensity Data - Source Data - All data

Summary Information

Storm ID 1892247N12327
Start Sep 3 06Z
Max Intensity 85 kt (Sep 7 06Z)
End Sep 17 12Z
ATCF IDs AL031892
Track status Best track data.

Storm track plot

Map of storm track

Intensity plots

Map of storm track

Radial wind information

No radial wind information for this storm


Position and Intensity Table

BASIN ISO_TIME_________ NATURE LAT LON WMO WIND USA WIND MLC WIND
degrees north degrees east kts kts kts
NA 1892-09-03 06:00:00 TS 11.50 -33.00 35 35 35
NA 09:00:00 TS 11.53 -33.79 35 35
NA 12:00:00 TS 11.60 -34.60 35 35 35
NA 15:00:00 TS 11.73 -35.46 37 35
NA 18:00:00 TS 11.90 -36.30 40 40 35
NA 21:00:00 TS 12.06 -37.08 40 35
NA 1892-09-04 00:00:00 TS 12.20 -37.80 40 40 35
NA 03:00:00 TS 12.30 -38.48 40 35
NA 06:00:00 TS 12.40 -39.10 40 40 35
NA 09:00:00 TS 12.55 -39.69 42 35
NA 12:00:00 TS 12.70 -40.20 45 45 35
NA 15:00:00 TS 12.80 -40.63 47 35
NA 18:00:00 TS 12.90 -41.00 50 50 35
NA 21:00:00 TS 13.05 -41.36 50 35
NA 1892-09-05 00:00:00 TS 13.20 -41.70 50 50 35
NA 03:00:00 TS 13.30 -41.99 52 35
NA 06:00:00 TS 13.40 -42.30 55 55 35
NA 09:00:00 TS 13.53 -42.66 57 35
NA 12:00:00 TS 13.70 -43.10 60 60 35
NA 15:00:00 TS 13.93 -43.62 62 37
NA 18:00:00 TS 14.20 -44.20 65 65 40
NA 21:00:00 TS 14.49 -44.79 65 42
NA 1892-09-06 00:00:00 TS 14.80 -45.40 65 65 45
NA 03:00:00 TS 15.09 -46.02 67 47
NA 06:00:00 TS 15.40 -46.60 70 70 50
NA 09:00:00 TS 15.74 -47.09 72 52
NA 12:00:00 TS 16.10 -47.50 75 75 55
NA 15:00:00 TS 16.46 -47.87 75 57
NA 18:00:00 TS 16.80 -48.20 75 75 60
NA 21:00:00 TS 17.10 -48.51 77 60
NA 1892-09-07 00:00:00 TS 17.40 -48.80 80 80 60
NA 03:00:00 TS 17.75 -49.11 82 60
NA 06:00:00 TS 18.10 -49.40 85 85 60
NA 09:00:00 TS 18.41 -49.66 85 62
NA 12:00:00 TS 18.70 -49.90 85 85 65
NA 15:00:00 TS 19.00 -50.15 85 65
NA 18:00:00 TS 19.30 -50.40 85 85 65
NA 21:00:00 TS 19.60 -50.66 85 65
NA 1892-09-08 00:00:00 TS 19.90 -50.90 85 85 65
NA 03:00:00 TS 20.19 -51.10 85 65
NA 06:00:00 TS 20.50 -51.30 85 85 65
NA 09:00:00 TS 20.83 -51.54 85 65
NA 12:00:00 TS 21.20 -51.80 85 85 65
NA 15:00:00 TS 21.58 -52.06 85 65
NA 18:00:00 TS 22.00 -52.30 85 85 65
NA 21:00:00 TS 22.44 -52.51 85 65
NA 1892-09-09 00:00:00 TS 22.90 -52.70 85 85 65
NA 03:00:00 TS 23.35 -52.91 85 65
NA 06:00:00 TS 23.80 -53.10 85 85 65
NA 09:00:00 TS 24.25 -53.27 85 65
NA 12:00:00 TS 24.70 -53.40 85 85 65
NA 15:00:00 TS 25.16 -53.51 85 65
NA 18:00:00 TS 25.60 -53.60 85 85 65
NA 21:00:00 TS 26.00 -53.70 85 65
NA 1892-09-10 00:00:00 TS 26.40 -53.80 85 85 65
NA 03:00:00 TS 26.85 -53.91 85 65
NA 06:00:00 TS 27.30 -54.00 85 85 65
NA 09:00:00 TS 27.70 -54.05 85 65
NA 12:00:00 TS 28.10 -54.10 85 85 65
NA 15:00:00 TS 28.55 -54.20 85 65
NA 18:00:00 TS 29.00 -54.30 85 85 65
NA 21:00:00 TS 29.40 -54.36 85 65
NA 1892-09-11 00:00:00 TS 29.80 -54.40 85 85 65
NA 03:00:00 TS 30.24 -54.45 85 65
NA 06:00:00 TS 30.70 -54.50 85 85 65
NA 09:00:00 TS 31.18 -54.56 85 65
NA 12:00:00 TS 31.70 -54.60 85 85 65
NA 15:00:00 TS 32.25 -54.59 85 65
NA 18:00:00 TS 32.90 -54.50 85 85 65
NA 21:00:00 TS 33.67 -54.30 85 65
NA 1892-09-12 00:00:00 TS 34.50 -54.00 85 85 65
NA 03:00:00 TS 35.31 -53.64 85 65
NA 06:00:00 TS 36.10 -53.20 85 85 65
NA 09:00:00 TS 36.87 -52.74 85 65
NA 12:00:00 TS 37.60 -52.20 85 85 65
NA 15:00:00 TS 38.26 -51.59 85 65
NA 18:00:00 TS 38.90 -50.90 85 85 65
NA 21:00:00 TS 39.61 -50.15 85 65
NA 1892-09-13 00:00:00 TS 40.30 -49.30 85 85 65
NA 03:00:00 TS 40.91 -48.35 85 65
NA 06:00:00 TS 41.50 -47.30 85 85 65
NA 09:00:00 TS 42.15 -46.20 85 65
NA 12:00:00 TS 42.80 -45.00 85 85 65
NA 15:00:00 TS 43.41 -43.70 82 65
NA 18:00:00 TS 44.00 -42.30 80 80 65
NA 21:00:00 TS 44.56 -40.82 77 65
NA 1892-09-14 00:00:00 TS 45.10 -39.30 75 75 65
NA 03:00:00 TS 45.61 -37.76 72 65
NA 06:00:00 TS 46.10 -36.30 70 70 65
NA 09:00:00 TS 46.57 -34.99 67 65
NA 12:00:00 TS 47.00 -33.80 65 65 65
NA 15:00:00 TS 47.38 -32.68 62 62
NA 18:00:00 TS 47.70 -31.60 60 60 60
NA 21:00:00 TS 47.98 -30.50 60 60
NA 1892-09-15 00:00:00 TS 48.20 -29.40 60 60 60
NA 03:00:00 TS 48.37 -28.30 57 57
NA 06:00:00 TS 48.50 -27.20 55 55 55
NA 09:00:00 TS 48.66 -26.10 55 55
NA 12:00:00 MX 48.70 -25.00 55 55 55
NA 15:00:00 MX 48.52 -23.90 52 52
NA 18:00:00 MX 48.20 -22.80 50 50 50
NA 21:00:00 MX 47.86 -21.70 50 50
NA 1892-09-16 00:00:00 MX 47.50 -20.60 50 50 50
NA 03:00:00 MX 47.14 -19.50 50 50
NA 06:00:00 MX 46.80 -18.40 50 50 50
NA 09:00:00 MX 46.49 -17.27 50 50
NA 12:00:00 MX 46.20 -16.20 50 50 50
NA 15:00:00 MX 45.89 -15.23 50 50
NA 18:00:00 MX 45.60 -14.40 50 50 50
NA 21:00:00 MX 45.33 -13.68 47 47
NA 1892-09-17 00:00:00 MX 45.10 -13.10 45 45 45
NA 03:00:00 MX 44.89 -12.61 42 42
NA 06:00:00 MX 44.70 -12.20 40 40 40
NA 09:00:00 MX 44.50 -11.84 37 37
NA 12:00:00 MX 44.30 -11.50 35 35 35

Source Information

Agency Information
USA hurdat2-1851-2018-051019.txt:Line=7168:UNNAMED
TOKYO
CMA
HKO
NEWDELHI
REUNION
BOM
NADI
WELLINGTON
DS824
TD9636
TD9635
NEUMANN
MLC

All available IBTrACS Data

SEASON BASIN SUBBASIN ISO_TIME_________ NATURE LAT LON WMO WIND WMO AGENCY DIST2LAND LANDFALL IFLAG USA AGENCY USA ATCF_ID USA LAT USA LON USA STATUS USA WIND USA SSHS MLC LAT MLC LON MLC CLASS MLC WIND STORM SPEED STORM DIR
Year degrees north degrees east kts km km degrees north degrees east kts 1 degrees north degrees east kts kts degrees
1892 NA NA 1892-09-03 06:00:00 TS 11.50 -33.00 35 hurdat_atl 1716 1716 O____________O hurdat_atl AL031892 11.50 -33.00 TS 35 0 11.50 -33.00 TS 35 15 272
1892 NA NA 09:00:00 TS 11.53 -33.79 1744 1723 P____________P AL031892 11.53 -33.79 TS 35 0 11.53 -33.79 TS 35 16 274
1892 NA NA 12:00:00 TS 11.60 -34.60 35 hurdat_atl 1723 1706 O____________O hurdat_atl AL031892 11.60 -34.60 TS 35 0 11.60 -34.60 TS 35 17 277
1892 NA NA 15:00:00 TS 11.73 -35.46 1703 1699 P____________P AL031892 11.73 -35.46 TS 37 0 11.73 -35.46 TS 35 17 280
1892 NA NA 18:00:00 TS 11.90 -36.30 40 hurdat_atl 1702 1697 O____________O hurdat_atl AL031892 11.90 -36.30 TS 40 0 11.90 -36.30 TS 35 16 281
1892 NA NA 21:00:00 TS 12.06 -37.08 1706 1699 P____________P AL031892 12.06 -37.08 TS 40 0 12.06 -37.08 TS 35 15 282
1892 NA NA 1892-09-04 00:00:00 TS 12.20 -37.80 40 hurdat_atl 1706 1678 O____________O hurdat_atl AL031892 12.20 -37.80 TS 40 0 12.20 -37.80 TS 35 14 280
1892 NA NA 03:00:00 TS 12.30 -38.48 1669 1620 P____________P AL031892 12.30 -38.48 TS 40 0 12.30 -38.48 TS 35 13 279
1892 NA NA 06:00:00 TS 12.40 -39.10 40 hurdat_atl 1620 1572 O____________O hurdat_atl AL031892 12.40 -39.10 TS 40 0 12.40 -39.10 TS 35 12 282
1892 NA NA 09:00:00 TS 12.55 -39.69 1572 1541 P____________P AL031892 12.55 -39.69 TS 42 0 12.55 -39.69 TS 35 11 286
1892 NA NA 12:00:00 TS 12.70 -40.20 45 hurdat_atl 1541 1513 O____________O hurdat_atl AL031892 12.70 -40.20 TS 45 0 12.70 -40.20 TS 35 10 285
1892 NA NA 15:00:00 TS 12.80 -40.63 1513 1486 P____________P AL031892 12.80 -40.63 TS 47 0 12.80 -40.63 TS 35 8 284
1892 NA NA 18:00:00 TS 12.90 -41.00 50 hurdat_atl 1486 1468 O____________O hurdat_atl AL031892 12.90 -41.00 TS 50 0 12.90 -41.00 TS 35 8 289
1892 NA NA 21:00:00 TS 13.05 -41.36 1460 1451 P____________P AL031892 13.05 -41.36 TS 50 0 13.05 -41.36 TS 35 7 294
1892 NA NA 1892-09-05 00:00:00 TS 13.20 -41.70 50 hurdat_atl 1451 1435 O____________O hurdat_atl AL031892 13.20 -41.70 TS 50 0 13.20 -41.70 TS 35 7 292
1892 NA NA 03:00:00 TS 13.30 -41.99 1435 1419 P____________P AL031892 13.30 -41.99 TS 52 0 13.30 -41.99 TS 35 6 289
1892 NA NA 06:00:00 TS 13.40 -42.30 55 hurdat_atl 1419 1405 O____________O hurdat_atl AL031892 13.40 -42.30 TS 55 0 13.40 -42.30 TS 35 7 289
1892 NA NA 09:00:00 TS 13.53 -42.66 1397 1384 P____________P AL031892 13.53 -42.66 TS 57 0 13.53 -42.66 TS 35 8 291
1892 NA NA 12:00:00 TS 13.70 -43.10 60 hurdat_atl 1385 1367 O____________O hurdat_atl AL031892 13.70 -43.10 TS 60 0 13.70 -43.10 TS 35 10 293
1892 NA NA 15:00:00 TS 13.93 -43.62 1367 1352 P____________P AL031892 13.93 -43.62 TS 62 0 13.93 -43.62 TS 37 12 295
1892 NA NA 18:00:00 TS 14.20 -44.20 65 hurdat_atl 1355 1343 O____________O hurdat_atl AL031892 14.20 -44.20 HU 65 1 14.20 -44.20 TS 40 13 296
1892 NA NA 21:00:00 TS 14.49 -44.79 1346 1330 P____________P AL031892 14.49 -44.79 HU 65 1 14.49 -44.79 TS 42 13 297
1892 NA NA 1892-09-06 00:00:00 TS 14.80 -45.40 65 hurdat_atl 1333 1319 O____________O hurdat_atl AL031892 14.80 -45.40 HU 65 1 14.80 -45.40 TS 45 13 297
1892 NA NA 03:00:00 TS 15.09 -46.02 1323 1313 P____________P AL031892 15.09 -46.02 HU 67 1 15.09 -46.02 TS 47 13 297
1892 NA NA 06:00:00 TS 15.40 -46.60 70 hurdat_atl 1317 1311 O____________O hurdat_atl AL031892 15.40 -46.60 HU 70 1 15.40 -46.60 TS 50 12 302
1892 NA NA 09:00:00 TS 15.74 -47.09 1320 1320 P____________P AL031892 15.74 -47.09 HU 72 1 15.74 -47.09 TS 52 11 309
1892 NA NA 12:00:00 TS 16.10 -47.50 75 hurdat_atl 1340 1340 O____________O hurdat_atl AL031892 16.10 -47.50 HU 75 1 16.10 -47.50 TS 55 10 313
1892 NA NA 15:00:00 TS 16.46 -47.87 1363 1363 P____________P AL031892 16.46 -47.87 HU 75 1 16.46 -47.87 TS 57 10 316
1892 NA NA 18:00:00 TS 16.80 -48.20 75 hurdat_atl 1382 1382 O____________O hurdat_atl AL031892 16.80 -48.20 HU 75 1 16.80 -48.20 TS 60 9 317
1892 NA NA 21:00:00 TS 17.10 -48.51 1399 1394 P____________P AL031892 17.10 -48.51 HU 77 1 17.10 -48.51 TS 60 8 316
1892 NA NA 1892-09-07 00:00:00 TS 17.40 -48.80 80 hurdat_atl 1415 1415 O____________O hurdat_atl AL031892 17.40 -48.80 HU 80 1 17.40 -48.80 TS 60 9 319
1892 NA NA 03:00:00 TS 17.75 -49.11 1432 1432 P____________P AL031892 17.75 -49.11 HU 82 1 17.75 -49.11 TS 60 9 321
1892 NA NA 06:00:00 TS 18.10 -49.40 85 hurdat_atl 1462 1462 O____________O hurdat_atl AL031892 18.10 -49.40 HU 85 2 18.10 -49.40 TS 60 8 321
1892 NA NA 09:00:00 TS 18.41 -49.66 1482 1482 P____________P AL031892 18.41 -49.66 HU 85 2 18.41 -49.66 TS 62 8 322
1892 NA NA 12:00:00 TS 18.70 -49.90 85 hurdat_atl 1491 1487 O____________O hurdat_atl AL031892 18.70 -49.90 HU 85 2 18.70 -49.90 HU 65 8 322
1892 NA NA 15:00:00 TS 19.00 -50.15 1486 1483 P____________P AL031892 19.00 -50.15 HU 85 2 19.00 -50.15 HU 65 8 322
1892 NA NA 18:00:00 TS 19.30 -50.40 85 hurdat_atl 1490 1488 O____________O hurdat_atl AL031892 19.30 -50.40 HU 85 2 19.30 -50.40 HU 65 8 321
1892 NA NA 21:00:00 TS 19.60 -50.66 1487 1486 P____________P AL031892 19.60 -50.66 HU 85 2 19.60 -50.66 HU 65 8 322
1892 NA NA 1892-09-08 00:00:00 TS 19.90 -50.90 85 hurdat_atl 1493 1493 O____________O hurdat_atl AL031892 19.90 -50.90 HU 85 2 19.90 -50.90 HU 65 7 325
1892 NA NA 03:00:00 TS 20.19 -51.10 1501 1501 P____________P AL031892 20.19 -51.10 HU 85 2 20.19 -51.10 HU 65 7 328
1892 NA NA 06:00:00 TS 20.50 -51.30 85 hurdat_atl 1509 1499 O____________O hurdat_atl AL031892 20.50 -51.30 HU 85 2 20.50 -51.30 HU 65 8 327
1892 NA NA 09:00:00 TS 20.83 -51.54 1500 1474 P____________P AL031892 20.83 -51.54 HU 85 2 20.83 -51.54 HU 65 8 326
1892 NA NA 12:00:00 TS 21.20 -51.80 85 hurdat_atl 1476 1460 O____________O hurdat_atl AL031892 21.20 -51.80 HU 85 2 21.20 -51.80 HU 65 9 327
1892 NA NA 15:00:00 TS 21.58 -52.06 1454 1441 P____________P AL031892 21.58 -52.06 HU 85 2 21.58 -52.06 HU 65 9 330
1892 NA NA 18:00:00 TS 22.00 -52.30 85 hurdat_atl 1444 1432 O____________O hurdat_atl AL031892 22.00 -52.30 HU 85 2 22.00 -52.30 HU 65 10 334
1892 NA NA 21:00:00 TS 22.44 -52.51 1435 1429 P____________P AL031892 22.44 -52.51 HU 85 2 22.44 -52.51 HU 65 10 338
1892 NA NA 1892-09-09 00:00:00 TS 22.90 -52.70 85 hurdat_atl 1432 1424 O____________O hurdat_atl AL031892 22.90 -52.70 HU 85 2 22.90 -52.70 HU 65 10 338
1892 NA NA 03:00:00 TS 23.35 -52.91 1431 1422 P____________P AL031892 23.35 -52.91 HU 85 2 23.35 -52.91 HU 65 10 338
1892 NA NA 06:00:00 TS 23.80 -53.10 85 hurdat_atl 1429 1424 O____________O hurdat_atl AL031892 23.80 -53.10 HU 85 2 23.80 -53.10 HU 65 10 340
1892 NA NA 09:00:00 TS 24.25 -53.27 1428 1428 P____________P AL031892 24.25 -53.27 HU 85 2 24.25 -53.27 HU 65 9 343
1892 NA NA 12:00:00 TS 24.70 -53.40 85 hurdat_atl 1443 1443 O____________O hurdat_atl AL031892 24.70 -53.40 HU 85 2 24.70 -53.40 HU 65 9 346
1892 NA NA 15:00:00 TS 25.16 -53.51 1460 1460 P____________P AL031892 25.16 -53.51 HU 85 2 25.16 -53.51 HU 65 9 349
1892 NA NA 18:00:00 TS 25.60 -53.60 85 hurdat_atl 1474 1474 O____________O hurdat_atl AL031892 25.60 -53.60 HU 85 2 25.60 -53.60 HU 65 9 349
1892 NA NA 21:00:00 TS 26.00 -53.70 1489 1489 P____________P AL031892 26.00 -53.70 HU 85 2 26.00 -53.70 HU 65 8 347
1892 NA NA 1892-09-10 00:00:00 TS 26.40 -53.80 85 hurdat_atl 1505 1505 O____________O hurdat_atl AL031892 26.40 -53.80 HU 85 2 26.40 -53.80 HU 65 9 348
1892 NA NA 03:00:00 TS 26.85 -53.91 1529 1529 P____________P AL031892 26.85 -53.91 HU 85 2 26.85 -53.91 HU 65 9 349
1892 NA NA 06:00:00 TS 27.30 -54.00 85 hurdat_atl 1547 1547 O____________O hurdat_atl AL031892 27.30 -54.00 HU 85 2 27.30 -54.00 HU 65 9 351
1892 NA NA 09:00:00 TS 27.70 -54.05 1567 1567 P____________P AL031892 27.70 -54.05 HU 85 2 27.70 -54.05 HU 65 8 354
1892 NA NA 12:00:00 TS 28.10 -54.10 85 hurdat_atl 1596 1596 O____________O hurdat_atl AL031892 28.10 -54.10 HU 85 2 28.10 -54.10 HU 65 9 351
1892 NA NA 15:00:00 TS 28.55 -54.20 1625 1625 P____________P AL031892 28.55 -54.20 HU 85 2 28.55 -54.20 HU 65 9 349
1892 NA NA 18:00:00 TS 29.00 -54.30 85 hurdat_atl 1648 1648 O____________O hurdat_atl AL031892 29.00 -54.30 HU 85 2 29.00 -54.30 HU 65 9 351
1892 NA NA 21:00:00 TS 29.40 -54.36 1673 1673 P____________P AL031892 29.40 -54.36 HU 85 2 29.40 -54.36 HU 65 8 354
1892 NA NA 1892-09-11 00:00:00 TS 29.80 -54.40 85 hurdat_atl 1704 1704 O____________O hurdat_atl AL031892 29.80 -54.40 HU 85 2 29.80 -54.40 HU 65 8 355
1892 NA NA 03:00:00 TS 30.24 -54.45 1730 1712 P____________P AL031892 30.24 -54.45 HU 85 2 30.24 -54.45 HU 65 9 355
1892 NA NA 06:00:00 TS 30.70 -54.50 85 hurdat_atl 1712 1667 O____________O hurdat_atl AL031892 30.70 -54.50 HU 85 2 30.70 -54.50 HU 65 10 354
1892 NA NA 09:00:00 TS 31.18 -54.56 1657 1604 P____________P AL031892 31.18 -54.56 HU 85 2 31.18 -54.56 HU 65 10 355
1892 NA NA 12:00:00 TS 31.70 -54.60 85 hurdat_atl 1604 1551 O____________O hurdat_atl AL031892 31.70 -54.60 HU 85 2 31.70 -54.60 HU 65 11 359
1892 NA NA 15:00:00 TS 32.25 -54.59 1540 1481 P____________P AL031892 32.25 -54.59 HU 85 2 32.25 -54.59 HU 65 12 4
1892 NA NA 18:00:00 TS 32.90 -54.50 85 hurdat_atl 1481 1415 O____________O hurdat_atl AL031892 32.90 -54.50 HU 85 2 32.90 -54.50 HU 65 14 10
1892 NA NA 21:00:00 TS 33.67 -54.30 1404 1334 P____________P AL031892 33.67 -54.30 HU 85 2 33.67 -54.30 HU 65 17 15
1892 NA NA 1892-09-12 00:00:00 TS 34.50 -54.00 85 hurdat_atl 1334 1257 O____________O hurdat_atl AL031892 34.50 -54.00 HU 85 2 34.50 -54.00 HU 65 17 19
1892 NA NA 03:00:00 TS 35.31 -53.64 1257 1168 P____________P AL031892 35.31 -53.64 HU 85 2 35.31 -53.64 HU 65 17 22
1892 NA NA 06:00:00 TS 36.10 -53.20 85 hurdat_atl 1168 1090 O____________O hurdat_atl AL031892 36.10 -53.20 HU 85 2 36.10 -53.20 HU 65 17 25
1892 NA NA 09:00:00 TS 36.87 -52.74 1079 1004 P____________P AL031892 36.87 -52.74 HU 85 2 36.87 -52.74 HU 65 17 28
1892 NA NA 12:00:00 TS 37.60 -52.20 85 hurdat_atl 1004 942 O____________O hurdat_atl AL031892 37.60 -52.20 HU 85 2 37.60 -52.20 HU 65 17 33
1892 NA NA 15:00:00 TS 38.26 -51.59 932 876 P____________P AL031892 38.26 -51.59 HU 85 2 38.26 -51.59 HU 65 17 38
1892 NA NA 18:00:00 TS 38.90 -50.90 85 hurdat_atl 876 815 O____________O hurdat_atl AL031892 38.90 -50.90 HU 85 2 38.90 -50.90 HU 65 18 40
1892 NA NA 21:00:00 TS 39.61 -50.15 815 763 P____________P AL031892 39.61 -50.15 HU 85 2 39.61 -50.15 HU 65 19 41
1892 NA NA 1892-09-13 00:00:00 TS 40.30 -49.30 85 hurdat_atl 767 740 O____________O hurdat_atl AL031892 40.30 -49.30 HU 85 2 40.30 -49.30 HU 65 19 47
1892 NA NA 03:00:00 TS 40.91 -48.35 744 730 P____________P AL031892 40.91 -48.35 HU 85 2 40.91 -48.35 HU 65 19 52
1892 NA NA 06:00:00 TS 41.50 -47.30 85 hurdat_atl 735 732 O____________O hurdat_atl AL031892 41.50 -47.30 HU 85 2 41.50 -47.30 HU 65 20 52
1892 NA NA 09:00:00 TS 42.15 -46.20 746 742 P____________P AL031892 42.15 -46.20 HU 85 2 42.15 -46.20 HU 65 21 53
1892 NA NA 12:00:00 TS 42.80 -45.00 85 hurdat_atl 769 769 O____________O hurdat_atl AL031892 42.80 -45.00 HU 85 2 42.80 -45.00 HU 65 22 55
1892 NA NA 15:00:00 TS 43.41 -43.70 818 818 P____________P AL031892 43.41 -43.70 HU 82 1 43.41 -43.70 HU 65 23 59
1892 NA NA 18:00:00 TS 44.00 -42.30 80 hurdat_atl 884 884 O____________O hurdat_atl AL031892 44.00 -42.30 HU 80 1 44.00 -42.30 HU 65 24 61
1892 NA NA 21:00:00 TS 44.56 -40.82 961 961 P____________P AL031892 44.56 -40.82 HU 77 1 44.56 -40.82 HU 65 24 63
1892 NA NA 1892-09-14 00:00:00 TS 45.10 -39.30 75 hurdat_atl 1050 1050 O____________O hurdat_atl AL031892 45.10 -39.30 HU 75 1 45.10 -39.30 HU 65 24 64
1892 NA NA 03:00:00 TS 45.61 -37.76 1144 1144 P____________P AL031892 45.61 -37.76 HU 72 1 45.61 -37.76 HU 65 23 65
1892 NA NA 06:00:00 TS 46.10 -36.30 70 hurdat_atl 1242 1242 O____________O hurdat_atl AL031892 46.10 -36.30 HU 70 1 46.10 -36.30 HU 65 21 64
1892 NA NA 09:00:00 TS 46.57 -34.99 1328 1328 P____________P AL031892 46.57 -34.99 HU 67 1 46.57 -34.99 HU 65 19 62
1892 NA NA 12:00:00 TS 47.00 -33.80 65 hurdat_atl 1410 1410 O____________O hurdat_atl AL031892 47.00 -33.80 HU 65 1 47.00 -33.80 HU 65 18 63
1892 NA NA 15:00:00 TS 47.38 -32.68 1485 1485 P____________P AL031892 47.38 -32.68 HU 62 0 47.38 -32.68 HU 62 16 65
1892 NA NA 18:00:00 TS 47.70 -31.60 60 hurdat_atl 1560 1493 O____________O hurdat_atl AL031892 47.70 -31.60 TS 60 0 47.70 -31.60 TS 60 16 68
1892 NA NA 21:00:00 TS 47.98 -30.50 1486 1410 P____________P AL031892 47.98 -30.50 TS 60 0 47.98 -30.50 TS 60 16 71
1892 NA NA 1892-09-15 00:00:00 TS 48.20 -29.40 60 hurdat_atl 1403 1327 O____________O hurdat_atl AL031892 48.20 -29.40 TS 60 0 48.20 -29.40 TS 60 15 75
1892 NA NA 03:00:00 TS 48.37 -28.30 1320 1249 P____________P AL031892 48.37 -28.30 TS 57 0 48.37 -28.30 TS 57 15 78
1892 NA NA 06:00:00 TS 48.50 -27.20 55 hurdat_atl 1242 1166 O____________O hurdat_atl AL031892 48.50 -27.20 TS 55 0 48.50 -27.20 TS 55 15 79
1892 NA NA 09:00:00 TS 48.66 -26.10 1160 1093 P____________P AL031892 48.66 -26.10 TS 55 0 48.66 -26.10 TS 55 15 82
1892 NA NA 12:00:00 MX 48.70 -25.00 55 hurdat_atl 1086 1029 O____________O hurdat_atl AL031892 48.70 -25.00 TS 55 0 48.70 -25.00 EX 55 15 96
1892 NA NA 15:00:00 MX 48.52 -23.90 1023 973 P____________P AL031892 48.52 -23.90 TS 52 0 48.52 -23.90 EX 52 15 109
1892 NA NA 18:00:00 MX 48.20 -22.80 50 hurdat_atl 966 919 O____________O hurdat_atl AL031892 48.20 -22.80 TS 50 0 48.20 -22.80 EX 50 16 114
1892 NA NA 21:00:00 MX 47.86 -21.70 913 877 P____________P AL031892 47.86 -21.70 TS 50 0 47.86 -21.70 EX 50 16 115
1892 NA NA 1892-09-16 00:00:00 MX 47.50 -20.60 50 hurdat_atl 871 833 O____________O hurdat_atl AL031892 47.50 -20.60 TS 50 0 47.50 -20.60 EX 50 16 116
1892 NA NA 03:00:00 MX 47.14 -19.50 835 799 P____________P AL031892 47.14 -19.50 TS 50 0 47.14 -19.50 EX 50 16 115
1892 NA NA 06:00:00 MX 46.80 -18.40 50 hurdat_atl 796 739 O____________O hurdat_atl AL031892 46.80 -18.40 TS 50 0 46.80 -18.40 EX 50 17 113
1892 NA NA 09:00:00 MX 46.49 -17.27 739 656 P____________P AL031892 46.49 -17.27 TS 50 0 46.49 -17.27 EX 50 16 112
1892 NA NA 12:00:00 MX 46.20 -16.20 50 hurdat_atl 649 573 O____________O hurdat_atl AL031892 46.20 -16.20 TS 50 0 46.20 -16.20 EX 50 15 113
1892 NA NA 15:00:00 MX 45.89 -15.23 566 496 P____________P AL031892 45.89 -15.23 TS 50 0 45.89 -15.23 EX 50 14 116
1892 NA NA 18:00:00 MX 45.60 -14.40 50 hurdat_atl 496 432 O____________O hurdat_atl AL031892 45.60 -14.40 TS 50 0 45.60 -14.40 EX 50 12 117
1892 NA NA 21:00:00 MX 45.33 -13.68 432 381 P____________P AL031892 45.33 -13.68 TS 47 0 45.33 -13.68 EX 47 10 119
1892 NA NA 1892-09-17 00:00:00 MX 45.10 -13.10 45 hurdat_atl 381 336 O____________O hurdat_atl AL031892 45.10 -13.10 TS 45 0 45.10 -13.10 EX 45 9 120
1892 NA NA 03:00:00 MX 44.89 -12.61 336 298 P____________P AL031892 44.89 -12.61 TS 42 0 44.89 -12.61 EX 42 8 122
1892 NA NA 06:00:00 MX 44.70 -12.20 40 hurdat_atl 298 266 O____________O hurdat_atl AL031892 44.70 -12.20 TS 40 0 44.70 -12.20 EX 40 7 126
1892 NA NA 09:00:00 MX 44.50 -11.84 259 227 P____________P AL031892 44.50 -11.84 TS 37 0 44.50 -11.84 EX 37 6 129
1892 NA NA 12:00:00 MX 44.30 -11.50 35 hurdat_atl 227 O____________O hurdat_atl AL031892 44.30 -11.50 TS 35 0 44.30 -11.50 EX 35 6 130